createdAt,value
2023-04-18T03:12:23.629Z,99963.87
2023-04-18T03:15:27.015Z,99963.87
2023-04-18T03:18:29.359Z,99974.50
2023-04-18T03:21:32.033Z,99979.66
2023-04-18T03:24:34.515Z,99985.41
2023-04-18T03:27:37.571Z,99985.63
2023-04-18T03:30:39.957Z,99981.44
2023-04-18T03:33:44.203Z,99980.78
2023-04-18T03:36:47.992Z,99986.56
2023-04-18T03:39:51.758Z,99977.94
2023-04-18T03:42:54.569Z,99987.63
2023-04-18T03:45:57.025Z,99983.44
2023-04-18T03:48:59.708Z,99981.94
2023-04-18T03:52:02.134Z,99978.53
2023-04-18T03:55:04.873Z,99980.44
2023-04-18T03:58:08.437Z,99982.91
2023-04-18T04:01:11.042Z,99986.13
2023-04-18T04:04:15.290Z,99992.22
2023-04-18T04:07:18.151Z,99992.09
2023-04-18T04:10:21.323Z,99990.00
2023-04-18T04:13:24.057Z,99999.41
2023-04-18T04:16:27.873Z,100001.41
2023-04-18T04:19:30.316Z,99995.78
2023-04-18T04:22:34.411Z,100001.28
2023-04-18T04:25:38.594Z,100000.25
2023-04-18T04:28:42.874Z,100003.69
2023-04-18T04:31:46.536Z,100009.19
2023-04-18T04:34:50.444Z,100008.91
2023-04-18T04:37:52.967Z,100004.53
2023-04-18T04:40:57.440Z,100008.78
2023-04-18T04:44:01.743Z,100016.34
2023-04-18T04:47:04.939Z,100016.78
2023-04-18T04:50:11.632Z,100019.47
2023-04-18T04:53:14.090Z,100027.31
2023-04-18T04:56:16.390Z,100022.31
2023-04-18T04:59:19.281Z,100028.53
2023-04-18T05:02:23.249Z,100037.13
2023-04-18T05:05:26.945Z,100035.41
2023-04-18T05:08:29.093Z,100035.72
2023-04-18T05:11:31.537Z,100033.13
2023-04-18T05:14:33.783Z,100034.44
2023-04-18T05:17:36.317Z,100037.66
2023-04-18T05:20:38.538Z,100037.37
2023-04-18T05:23:40.974Z,100043.63
2023-04-18T05:26:43.427Z,100047.13
2023-04-18T05:29:47.515Z,100049.06
2023-04-18T05:32:49.948Z,100051.94
2023-04-18T05:35:52.484Z,100044.31
2023-04-18T05:38:54.657Z,100051.28
2023-04-18T05:41:58.293Z,100050.63
2023-04-18T05:45:00.547Z,100051.53
2023-04-18T05:48:03.245Z,100055.03
2023-04-18T05:51:05.876Z,100040.28
2023-04-18T05:54:08.269Z,100045.09
2023-04-18T05:57:10.545Z,100044.00
2023-04-18T06:00:13.759Z,100045.94
2023-04-18T06:03:16.693Z,100044.97
2023-04-18T06:06:19.278Z,100055.56
2023-04-18T06:09:21.775Z,100050.78
2023-04-18T06:12:24.259Z,100056.00
2023-04-18T06:15:28.207Z,100052.25
2023-04-18T06:18:30.369Z,100052.69
2023-04-18T06:21:32.896Z,100052.38
2023-04-18T06:24:35.169Z,100052.25
2023-04-18T06:27:38.272Z,100059.69
2023-04-18T06:30:40.631Z,100057.97
2023-04-18T06:33:43.057Z,100058.75
2023-04-18T06:36:45.293Z,100058.47
2023-04-18T06:39:47.797Z,100057.78
2023-04-18T06:42:49.932Z,100054.69
2023-04-18T06:45:52.822Z,100050.41
2023-04-18T06:48:55.063Z,100052.16
2023-04-18T06:51:57.504Z,100059.25
2023-04-18T06:54:59.683Z,100046.75
2023-04-18T06:58:02.110Z,100047.91
2023-04-18T07:01:04.505Z,100045.66
2023-04-18T07:04:07.055Z,100053.09
2023-04-18T07:07:09.379Z,100052.22
2023-04-18T07:10:11.910Z,100046.66
2023-04-18T07:13:14.045Z,100064.44
2023-04-18T07:16:16.635Z,100063.69
2023-04-18T07:19:18.871Z,100063.78
2023-04-18T07:22:21.295Z,100064.66
2023-04-18T07:25:23.398Z,100054.81
2023-04-18T07:28:25.959Z,100061.09
2023-04-18T07:31:28.707Z,100072.75
2023-04-18T07:34:31.475Z,100077.97
2023-04-18T07:37:33.653Z,100079.44
2023-04-18T07:40:36.054Z,100080.31
2023-04-18T07:43:38.971Z,100096.19
2023-04-18T07:46:41.543Z,100090.53
2023-04-18T07:49:43.737Z,100091.94
2023-04-18T07:52:48.714Z,100093.72
2023-04-18T07:55:51.139Z,100091.19
2023-04-18T07:58:53.776Z,100091.31
2023-04-18T08:01:56.099Z,100097.75
2023-04-18T08:04:58.965Z,100099.13
2023-04-18T08:08:02.370Z,100099.88
2023-04-18T08:11:04.906Z,100099.22
2023-04-18T08:14:07.058Z,100099.47
2023-04-18T08:17:09.608Z,100098.34
2023-04-18T08:20:12.992Z,100106.78
2023-04-18T08:23:15.932Z,100095.66
2023-04-18T08:26:18.206Z,100104.38
2023-04-18T08:29:20.620Z,100098.28
2023-04-18T08:32:22.758Z,100106.22
2023-04-18T08:35:25.226Z,100092.88
2023-04-18T08:38:27.461Z,100091.59
2023-04-18T08:41:35.947Z,100087.81
2023-04-18T08:44:38.204Z,100088.19
2023-04-18T08:47:41.792Z,100092.56
2023-04-18T08:50:45.349Z,100096.12
2023-04-18T08:53:48.311Z,100095.53
2023-04-18T08:57:12.600Z,100098.97
2023-04-18T09:00:17.692Z,100093.66
2023-04-18T09:03:39.992Z,100088.59
2023-04-18T09:06:53.126Z,100096.28
2023-04-18T09:09:57.290Z,100092.16
2023-04-18T09:13:03.253Z,100093.25
2023-04-18T09:16:06.349Z,100091.81
2023-04-18T09:19:14.623Z,100097.09
2023-04-18T09:22:18.083Z,100104.50
2023-04-18T09:25:29.383Z,100098.13
2023-04-18T09:28:33.236Z,100101.41
2023-04-18T09:31:51.103Z,100109.31
2023-04-18T09:34:58.007Z,100111.16
2023-04-18T09:38:00.725Z,100099.31
2023-04-18T09:41:10.242Z,100084.13
2023-04-18T09:44:14.987Z,100092.81
2023-04-18T09:47:17.625Z,100089.22
2023-04-18T09:50:20.825Z,100091.56
2023-04-18T09:53:24.336Z,100100.09
2023-04-18T09:56:29.553Z,100097.34
2023-04-18T09:59:41.389Z,100093.34
2023-04-18T10:02:58.043Z,100078.63
2023-04-18T10:06:00.840Z,100084.94
2023-04-18T10:09:04.239Z,100084.03
2023-04-18T10:12:06.978Z,100088.78
2023-04-18T10:15:11.173Z,100087.16
2023-04-18T10:18:16.949Z,100101.53
2023-04-18T10:21:19.059Z,100099.22
2023-04-18T10:24:56.868Z,100093.88
2023-04-18T10:28:02.908Z,100090.34
2023-04-18T10:31:05.835Z,100092.88
2023-04-18T10:34:08.186Z,100081.44
2023-04-18T10:37:12.830Z,100086.78
2023-04-18T10:40:15.697Z,100089.94
2023-04-18T10:43:18.372Z,100087.63
2023-04-18T10:46:31.130Z,100088.50
2023-04-18T10:49:36.639Z,100076.03
2023-04-18T10:52:39.086Z,100079.59
2023-04-18T10:55:50.131Z,100081.22
2023-04-18T10:58:53.668Z,100080.72
2023-04-18T11:02:09.838Z,100070.75
2023-04-18T11:05:12.139Z,100067.84
2023-04-18T11:08:24.212Z,100075.00
2023-04-18T11:11:26.447Z,100079.00
2023-04-18T11:14:51.954Z,100063.06
2023-04-18T11:17:58.065Z,100069.22
2023-04-18T11:21:03.753Z,100074.13
2023-04-18T11:24:06.160Z,100084.13
2023-04-18T11:27:10.937Z,100089.41
2023-04-18T11:30:14.850Z,100083.25
2023-04-18T11:33:17.343Z,100089.31
2023-04-18T11:36:19.525Z,100085.00
2023-04-18T11:39:22.383Z,100087.00
2023-04-18T11:42:28.544Z,100091.16
2023-04-18T11:45:31.261Z,100086.50
2023-04-18T11:48:43.193Z,100082.41
2023-04-18T11:51:47.363Z,100080.84
2023-04-18T11:54:51.332Z,100075.94
2023-04-18T11:57:54.776Z,100076.81
2023-04-18T12:00:57.008Z,100081.75
2023-04-18T12:04:07.129Z,100092.78
2023-04-18T12:07:09.479Z,100073.06
2023-04-18T12:10:27.576Z,100077.19
2023-04-18T12:13:33.055Z,100076.97
2023-04-18T12:16:35.647Z,100082.78
2023-04-18T12:19:37.937Z,100081.13
2023-04-18T12:22:42.034Z,100079.94
2023-04-18T12:25:44.298Z,100076.81
2023-04-18T12:28:51.213Z,100071.63
2023-04-18T12:31:53.498Z,100068.22
2023-04-18T12:34:55.938Z,100076.16
2023-04-18T12:38:00.365Z,100071.72
2023-04-18T12:41:02.790Z,100065.53
2023-04-18T12:44:05.950Z,100074.25
2023-04-18T12:47:08.900Z,100071.63
2023-04-18T12:50:15.479Z,100082.50
2023-04-18T12:53:17.926Z,100083.19
2023-04-18T12:56:21.038Z,100074.94
2023-04-18T12:59:23.762Z,100065.44
2023-04-18T13:02:28.914Z,100066.59
2023-04-18T13:05:33.938Z,100067.47
2023-04-18T13:08:37.475Z,100073.56
2023-04-18T13:11:39.861Z,100075.38
2023-04-18T13:14:42.675Z,100070.72
2023-04-18T13:17:45.426Z,100075.03
2023-04-18T13:20:47.818Z,100075.31
2023-04-18T13:23:50.250Z,100081.53
2023-04-18T13:26:52.837Z,100075.03
2023-04-18T13:29:58.325Z,100075.31
2023-04-18T13:33:00.635Z,100072.69
2023-04-18T13:36:03.297Z,100070.94
2023-04-18T13:39:05.742Z,100069.50
2023-04-18T13:42:08.848Z,100067.81
2023-04-18T13:45:11.236Z,100062.19
2023-04-18T13:48:15.705Z,100061.09
2023-04-18T13:51:19.004Z,100062.91
2023-04-18T13:54:21.819Z,100064.78
2023-04-18T13:57:23.970Z,100072.75
2023-04-18T14:00:26.940Z,100080.66
2023-04-18T14:03:30.007Z,100077.50
2023-04-18T14:06:32.649Z,100075.63
2023-04-18T14:09:35.230Z,100080.38
2023-04-18T14:12:37.548Z,100078.16
2023-04-18T14:15:40.043Z,100068.19
2023-04-18T14:18:42.365Z,100064.75
2023-04-18T14:21:46.504Z,100065.09
2023-04-18T14:24:49.127Z,100066.81
2023-04-18T14:28:04.685Z,100061.37
2023-04-18T14:31:06.877Z,100064.69
2023-04-18T14:34:09.822Z,100066.38
2023-04-18T14:37:12.050Z,100067.34
2023-04-18T14:40:14.592Z,100056.56
2023-04-18T14:43:16.821Z,100055.00
2023-04-18T14:46:20.990Z,100061.19
2023-04-18T14:49:23.190Z,100062.06
2023-04-18T14:52:25.765Z,100061.19
2023-04-18T14:55:27.925Z,100056.69
2023-04-18T14:58:30.467Z,100060.00
2023-04-18T15:01:32.593Z,100071.00
2023-04-18T15:04:35.107Z,100079.56
2023-04-18T15:07:37.933Z,100072.62
2023-04-18T15:10:42.257Z,100065.47
2023-04-18T15:13:44.647Z,100066.84
2023-04-18T15:16:49.953Z,100070.56
